Time;durP1;ratioP1;P1;durP2;ratioP2;P2;SDS_P1;SDS_P2;PMS_P1;PMS_P2;Temp;Humidity;BMP_temperature;BMP_pressure;BME280_temperature;BME280_humidity;BME280_pressure;Samples;Min_cycle;Max_cycle;Signal;HPM_P1;HPM_P2
2021/12/11 12:09:29;;;;;;;49.15;19.33;;;;;;;2.41;94.36;99321.72;4876462;23;20472;-66
2021/12/11 12:11:57;;;;;;;36.35;14.75;;;;;;;2.26;94.66;99321.75;4949156;28;20089;-66
2021/12/11 12:14:25;;;;;;;43.92;18.27;;;;;;;2.33;94.94;99312.88;4942459;28;20110;-69
2021/12/11 12:16:51;;;;;;;37.78;15.07;;;;;;;2.48;95.30;99314.66;4936120;28;20209;-69
2021/12/11 12:19:17;;;;;;;41.17;18.80;;;;;;;2.44;95.88;99311.56;4923957;28;20035;-69
2021/12/11 12:21:45;;;;;;;32.90;13.02;;;;;;;2.40;95.35;99322.69;4954321;28;20067;-67
2021/12/11 12:24:10;;;;;;;20.35;9.82;;;;;;;2.22;96.24;99321.31;4953667;28;20034;-67
2021/12/11 12:26:37;;;;;;;41.83;17.42;;;;;;;2.25;96.30;99326.22;4951873;28;20065;-66
2021/12/11 12:29:05;;;;;;;38.97;17.35;;;;;;;2.16;95.74;99337.91;4956716;28;20035;-66
2021/12/11 12:31:34;;;;;;;31.52;14.18;;;;;;;2.18;96.80;99335.91;4938030;29;20127;-68
2021/12/11 12:34:00;;;;;;;32.25;15.05;;;;;;;2.09;97.11;99339.66;4948085;28;20034;-67
2021/12/11 12:36:26;;;;;;;39.97;14.55;;;;;;;2.16;97.96;99343.19;4957239;28;20027;-67
2021/12/11 12:38:53;;;;;;;24.80;11.63;;;;;;;2.16;98.17;99348.47;4954116;28;20055;-67
2021/12/11 12:41:33;;;;;;;35.28;13.50;;;;;;;2.27;98.01;99345.38;4955165;28;20031;-67
2021/12/11 12:44:17;;;;;;;41.67;15.93;;;;;;;2.18;98.25;99338.53;4942214;28;20548;-67
2021/12/11 12:46:46;;;;;;;42.03;17.17;;;;;;;2.39;97.70;99343.03;4957882;28;20110;-65
2021/12/11 12:49:12;;;;;;;32.88;14.52;;;;;;;2.51;97.12;99346.84;4957364;28;20038;-65
2021/12/11 12:51:37;;;;;;;39.92;16.10;;;;;;;2.49;96.87;99363.91;4946124;28;20085;-66
2021/12/11 12:54:05;;;;;;;38.15;15.00;;;;;;;2.35;97.16;99358.47;4957453;28;20039;-67
2021/12/11 12:56:36;;;;;;;47.25;17.60;;;;;;;2.57;97.09;99366.44;4922208;28;20047;-67
2021/12/11 12:59:08;;;;;;;28.08;12.60;;;;;;;2.66;96.84;99365.31;4951797;28;20038;-67
2021/12/11 13:01:45;;;;;;;31.23;13.20;;;;;;;2.74;96.13;99367.84;4934298;28;20102;-67
2021/12/11 13:04:14;;;;;;;29.58;12.90;;;;;;;2.57;96.88;99364.63;4939818;28;20310;-67
2021/12/11 13:06:41;;;;;;;39.30;18.33;;;;;;;2.50;97.35;99379.63;4946482;28;20041;-68
2021/12/11 13:09:12;;;;;;;32.15;14.30;;;;;;;2.44;97.13;99364.47;4949037;28;20584;-68
2021/12/11 13:11:46;;;;;;;42.42;16.27;;;;;;;2.53;97.89;99375.78;4923058;29;20394;-68
2021/12/11 13:14:12;;;;;;;40.33;16.08;;;;;;;2.56;97.91;99380.69;4954119;28;20090;-69
2021/12/11 13:16:40;;;;;;;39.80;16.17;;;;;;;2.60;97.83;99376.66;4943738;28;20422;-68
2021/12/11 13:19:12;;;;;;;33.22;14.82;;;;;;;2.67;97.26;99388.16;4957689;28;20321;-68
2021/12/11 13:21:47;;;;;;;35.17;14.23;;;;;;;2.62;96.94;99390.53;4947932;28;20031;-68
2021/12/11 13:24:13;;;;;;;37.50;15.90;;;;;;;2.65;96.66;99395.44;4943354;28;20114;-68
2021/12/11 13:26:41;;;;;;;38.72;16.00;;;;;;;2.63;97.39;99397.47;4938165;28;20051;-68
2021/12/11 13:29:09;;;;;;;31.42;14.10;;;;;;;2.67;97.35;99398.75;4952324;28;20162;-68
2021/12/11 13:31:48;;;;;;;40.85;14.85;;;;;;;2.69;97.37;99396.69;4961602;28;20438;-68
2021/12/11 13:34:14;;;;;;;36.35;15.20;;;;;;;2.68;97.61;99397.72;4937994;28;20554;-68
2021/12/11 13:36:40;;;;;;;37.85;15.75;;;;;;;2.64;97.67;99404.38;4939643;29;20038;-68
2021/12/11 13:39:07;;;;;;;25.70;11.98;;;;;;;2.79;96.71;99404.34;4935676;28;20023;-69
2021/12/11 13:41:36;;;;;;;27.17;12.40;;;;;;;2.86;96.17;99397.28;4950546;28;20049;-67
2021/12/11 13:44:03;;;;;;;27.00;11.05;;;;;;;3.02;95.39;99409.44;4960774;28;20105;-67
2021/12/11 13:46:29;;;;;;;24.38;8.88;;;;;;;2.98;95.41;99416.16;4929375;28;20508;-67
2021/12/11 13:48:55;;;;;;;17.42;7.57;;;;;;;3.11;95.16;99418.09;4936746;28;20069;-67
2021/12/11 13:51:28;;;;;;;21.83;10.50;;;;;;;3.13;94.97;99424.84;4933924;28;20044;-67
2021/12/11 13:53:54;;;;;;;20.52;9.50;;;;;;;3.33;95.31;99432.16;4940674;28;20038;-67
2021/12/11 13:56:26;;;;;;;19.77;9.02;;;;;;;3.45;94.45;99434.09;4933773;28;20102;-67
2021/12/11 13:58:53;;;;;;;19.75;9.45;;;;;;;3.62;94.26;99445.25;4938006;28;20034;-66
2021/12/11 14:01:26;;;;;;;10.82;4.65;;;;;;;3.63;93.85;99449.53;4951811;28;20037;-66
2021/12/11 14:03:52;;;;;;;8.25;4.30;;;;;;;3.74;93.52;99452.69;4948636;28;20272;-67
2021/12/11 14:06:18;;;;;;;6.82;3.70;;;;;;;3.76;93.52;99450.66;4930201;28;20042;-67
2021/12/11 14:08:45;;;;;;;8.73;4.97;;;;;;;3.79;94.05;99460.88;4937715;29;20051;-67
2021/12/11 14:11:13;;;;;;;8.35;3.53;;;;;;;3.84;93.15;99463.75;4944988;28;20047;-67
2021/12/11 14:13:38;;;;;;;10.52;3.17;;;;;;;3.85;92.66;99460.13;4936064;28;20557;-67
2021/12/11 14:16:05;;;;;;;11.85;5.10;;;;;;;3.94;92.90;99463.44;4951364;28;20067;-67
2021/12/11 14:18:31;;;;;;;8.52;3.50;;;;;;;3.81;92.78;99466.81;4917191;28;20042;-67
2021/12/11 14:20:56;;;;;;;6.82;3.85;;;;;;;3.90;93.24;99470.97;4924062;28;20042;-67
2021/12/11 14:23:24;;;;;;;9.57;4.78;;;;;;;3.89;93.93;99471.94;4953417;28;20592;-67
2021/12/11 14:25:50;;;;;;;8.45;4.25;;;;;;;3.86;94.21;99482.97;4939534;28;20098;-66
2021/12/11 14:28:18;;;;;;;12.57;8.00;;;;;;;3.83;93.17;99493.94;4954083;28;20039;-67
2021/12/11 14:30:46;;;;;;;18.63;12.00;;;;;;;3.76;94.12;99493.06;4937682;28;20038;-67
2021/12/11 14:33:11;;;;;;;12.80;10.45;;;;;;;3.64;94.30;99493.59;4952513;28;20414;-67
2021/12/11 14:35:37;;;;;;;16.80;7.45;;;;;;;3.63;95.10;99497.25;4946741;28;20082;-67
2021/12/11 14:38:06;;;;;;;12.65;8.85;;;;;;;3.61;94.36;99493.16;4944969;28;20330;-67
2021/12/11 14:40:32;;;;;;;13.75;9.25;;;;;;;3.67;94.25;99500.34;4911718;28;20512;-67
2021/12/11 14:42:58;;;;;;;14.50;9.00;;;;;;;3.62;94.74;99503.56;4940057;28;20500;-67
2021/12/11 14:45:26;;;;;;;11.32;6.95;;;;;;;3.58;94.49;99501.50;4938327;28;20023;-66
2021/12/11 14:47:52;;;;;;;12.45;8.05;;;;;;;3.58;94.35;99502.31;4918097;29;20031;-66
2021/12/11 14:50:19;;;;;;;9.50;5.78;;;;;;;3.57;94.31;99511.28;4939822;28;20088;-66
2021/12/11 14:52:45;;;;;;;8.88;4.70;;;;;;;3.57;93.82;99510.44;4921370;28;20031;-66
2021/12/11 14:55:16;;;;;;;10.95;5.75;;;;;;;3.62;93.87;99508.88;4953204;28;20038;-66
2021/12/11 14:57:42;;;;;;;31.88;22.88;;;;;;;3.65;93.88;99513.78;4934048;28;20341;-66
2021/12/11 15:00:10;;;;;;;51.53;27.17;;;;;;;3.65;93.50;99519.09;4931415;28;20495;-66
2021/12/11 15:02:37;;;;;;;26.05;15.02;;;;;;;3.64;93.11;99524.56;4953723;28;20113;-66
2021/12/11 15:05:09;;;;;;;9.77;4.60;;;;;;;3.59;93.34;99535.75;4954202;28;20126;-66
2021/12/11 15:07:35;;;;;;;9.98;4.20;;;;;;;3.59;93.55;99534.94;4937916;28;20145;-66
2021/12/11 15:10:00;;;;;;;10.80;4.32;;;;;;;3.60;93.20;99549.84;4926455;28;20280;-66
2021/12/11 15:12:29;;;;;;;7.40;4.40;;;;;;;3.60;93.33;99549.84;4938976;29;20636;-66
2021/12/11 15:14:55;;;;;;;8.88;3.90;;;;;;;3.54;93.69;99551.38;4942048;28;20093;-66
2021/12/11 15:17:24;;;;;;;7.63;4.47;;;;;;;3.57;93.60;99561.63;4939761;28;20054;-66
2021/12/11 15:19:55;;;;;;;9.52;5.00;;;;;;;3.56;93.72;99567.94;4910143;28;20031;-67
2021/12/11 15:22:21;;;;;;;8.32;4.15;;;;;;;3.49;93.92;99571.53;4924363;28;20050;-68
2021/12/11 15:24:47;;;;;;;5.97;3.78;;;;;;;3.56;92.80;99575.06;4934277;28;20085;-68
2021/12/11 15:27:15;;;;;;;7.85;4.25;;;;;;;3.56;92.53;99573.22;4925852;28;20062;-66
2021/12/11 15:29:43;;;;;;;11.27;4.60;;;;;;;3.52;92.91;99582.59;4933958;28;20028;-67
2021/12/11 15:32:08;;;;;;;9.55;4.50;;;;;;;3.53;92.71;99586.06;4932217;28;21130;-66
2021/12/11 15:34:34;;;;;;;7.18;3.30;;;;;;;3.59;92.42;99587.94;4923487;28;20058;-67
2021/12/11 15:37:01;;;;;;;9.65;4.38;;;;;;;3.51;92.51;99596.84;4948557;28;20035;-67
2021/12/11 15:39:30;;;;;;;7.88;4.10;;;;;;;3.59;92.75;99594.06;4917939;29;20147;-69
2021/12/11 15:41:56;;;;;;;7.25;3.72;;;;;;;3.55;92.33;99597.28;4922340;28;20033;-68
2021/12/11 15:44:27;;;;;;;9.05;4.03;;;;;;;3.54;92.01;99601.75;4942563;28;20030;-67
2021/12/11 15:46:58;;;;;;;8.32;4.55;;;;;;;3.65;92.19;99603.91;4933388;28;20489;-66
2021/12/11 15:49:23;;;;;;;7.15;4.55;;;;;;;3.64;92.01;99614.69;4927595;28;20098;-67
2021/12/11 15:51:49;;;;;;;10.40;4.72;;;;;;;3.62;91.53;99614.91;4933323;28;20082;-67
2021/12/11 15:54:15;;;;;;;10.82;5.47;;;;;;;3.52;90.82;99613.53;4940210;28;20151;-66
2021/12/11 15:56:42;;;;;;;11.10;5.50;;;;;;;3.50;91.59;99627.00;4919184;28;20035;-68
2021/12/11 15:59:08;;;;;;;8.40;4.32;;;;;;;3.57;91.05;99629.72;4938619;28;20108;-68
2021/12/11 16:01:35;;;;;;;9.43;4.28;;;;;;;3.52;91.42;99646.19;4925163;28;20429;-68
2021/12/11 16:04:03;;;;;;;5.75;3.70;;;;;;;3.53;90.83;99639.88;4929095;28;20042;-68
2021/12/11 16:06:29;;;;;;;8.82;4.10;;;;;;;3.46;91.22;99633.69;4917074;28;20034;-68
2021/12/11 16:08:55;;;;;;;7.03;3.60;;;;;;;3.46;91.12;99641.63;4949988;28;20035;-68
2021/12/11 16:11:22;;;;;;;9.00;4.28;;;;;;;3.39;91.84;99646.84;4915797;29;20031;-68
2021/12/11 16:13:48;;;;;;;11.73;4.30;;;;;;;3.37;92.14;99648.03;4941853;28;20038;-68
2021/12/11 16:16:14;;;;;;;9.63;4.40;;;;;;;3.40;92.07;99656.44;4953723;28;20027;-66
2021/12/11 16:18:39;;;;;;;10.50;4.85;;;;;;;3.34;92.92;99654.53;4949413;28;20031;-66
2021/12/11 16:21:07;;;;;;;11.32;4.82;;;;;;;3.39;92.72;99662.72;4916349;28;20549;-66
2021/12/11 16:23:35;;;;;;;10.25;4.28;;;;;;;3.41;92.16;99675.81;4946886;28;20035;-67
2021/12/11 16:26:01;;;;;;;8.48;4.63;;;;;;;3.33;92.36;99671.44;4920575;28;20260;-66
2021/12/11 16:28:27;;;;;;;10.85;4.70;;;;;;;3.19;93.31;99683.69;4949819;28;20284;-66
2021/12/11 16:30:55;;;;;;;11.40;4.65;;;;;;;3.25;93.48;99687.44;4950611;28;20039;-68
2021/12/11 16:33:20;;;;;;;11.70;5.22;;;;;;;3.27;93.14;99689.88;4947116;28;20422;-66
2021/12/11 16:35:46;;;;;;;12.35;5.32;;;;;;;3.18;93.25;99695.28;4910633;28;20034;-68
2021/12/11 16:38:20;;;;;;;10.15;4.43;;;;;;;3.26;92.27;99690.91;4947148;28;20126;-67
2021/12/11 16:41:05;;;;;;;9.07;4.82;;;;;;;3.18;92.63;99695.28;4933909;28;20641;-68
2021/12/11 16:43:30;;;;;;;9.88;4.88;;;;;;;3.21;92.79;99694.91;4952280;28;20069;-67
2021/12/11 16:45:57;;;;;;;11.40;5.90;;;;;;;3.21;92.64;99691.44;4938321;28;20053;-68
2021/12/11 16:48:33;;;;;;;10.68;5.15;;;;;;;3.20;93.29;99693.28;4957497;28;20027;-67
2021/12/11 16:51:00;;;;;;;12.88;5.40;;;;;;;3.14;92.91;99699.28;4941839;28;20063;-67
2021/12/11 16:53:31;;;;;;;15.30;6.15;;;;;;;3.10;93.31;99699.88;4950130;28;20067;-67
2021/12/11 16:55:57;;;;;;;14.07;5.70;;;;;;;3.10;93.31;99703.34;4951046;28;20035;-67
2021/12/11 16:58:25;;;;;;;15.98;6.90;;;;;;;2.95;95.04;99710.44;4944939;28;20485;-67
2021/12/11 17:00:51;;;;;;;15.80;8.70;;;;;;;2.77;96.92;99711.59;4952184;28;20358;-67
2021/12/11 17:03:17;;;;;;;10.30;5.43;;;;;;;2.65;98.02;99718.34;4956262;28;20374;-67
2021/12/11 17:05:43;;;;;;;24.10;10.00;;;;;;;2.59;98.78;99719.03;4936596;29;20062;-67
2021/12/11 17:08:09;;;;;;;21.00;8.75;;;;;;;2.50;99.03;99722.78;4939601;28;20143;-67
2021/12/11 17:10:44;;;;;;;17.92;8.20;;;;;;;2.47;99.02;99723.94;4937206;28;20137;-68
2021/12/11 17:13:11;;;;;;;23.08;9.75;;;;;;;2.48;99.08;99724.78;4949524;28;20077;-67
2021/12/11 17:15:36;;;;;;;16.65;8.85;;;;;;;2.49;98.46;99734.34;4955230;28;20035;-67
2021/12/11 17:18:02;;;;;;;17.08;9.35;;;;;;;2.56;98.55;99737.94;4938149;28;20821;-67
2021/12/11 17:20:28;;;;;;;24.33;10.68;;;;;;;2.50;98.34;99743.94;4956663;28;20039;-66
2021/12/11 17:22:57;;;;;;;21.88;9.38;;;;;;;2.47;98.22;99744.28;4948612;28;20031;-66
2021/12/11 17:25:26;;;;;;;23.73;9.40;;;;;;;2.50;98.50;99755.34;4933627;28;20064;-66
2021/12/11 17:27:57;;;;;;;25.00;9.50;;;;;;;2.56;98.60;99748.50;4921608;28;20030;-68
2021/12/11 17:30:22;;;;;;;20.38;9.07;;;;;;;2.59;97.56;99754.25;4941681;28;20034;-68
2021/12/11 17:32:48;;;;;;;19.77;8.93;;;;;;;2.57;97.27;99760.72;4940579;29;20043;-68
2021/12/11 17:35:13;;;;;;;20.40;10.82;;;;;;;2.57;96.93;99760.72;4955847;28;20453;-68
2021/12/11 17:37:39;;;;;;;21.98;9.93;;;;;;;2.57;97.27;99769.50;4953888;28;20161;-68
2021/12/11 17:40:07;;;;;;;32.85;16.58;;;;;;;2.61;96.87;99775.25;4953257;28;20419;-68
2021/12/11 17:42:33;;;;;;;23.08;11.52;;;;;;;2.56;96.99;99774.97;4954947;28;20039;-68
2021/12/11 17:44:59;;;;;;;22.63;10.07;;;;;;;2.56;96.58;99780.25;4955076;28;20484;-68
2021/12/11 17:47:25;;;;;;;19.08;7.53;;;;;;;2.59;96.36;99783.38;4935147;28;20067;-68
2021/12/11 17:49:52;;;;;;;19.33;9.93;;;;;;;2.60;96.02;99789.50;4940276;28;20117;-67
2021/12/11 17:52:18;;;;;;;24.40;10.00;;;;;;;2.63;95.85;99794.44;4958382;28;20080;-68
2021/12/11 17:54:44;;;;;;;20.70;10.95;;;;;;;2.60;95.56;99794.81;4948265;28;20039;-68
2021/12/11 17:57:09;;;;;;;21.17;10.55;;;;;;;2.56;95.81;99793.50;4940223;28;20480;-66
2021/12/11 17:59:35;;;;;;;19.13;8.63;;;;;;;2.52;95.71;99793.03;4942533;28;20149;-66
2021/12/11 18:02:04;;;;;;;25.67;9.98;;;;;;;2.50;95.63;99804.81;4951157;28;20819;-68
2021/12/11 18:04:48;;;;;;;26.83;11.77;;;;;;;2.46;95.42;99814.06;4926641;28;20062;-67
2021/12/11 18:07:38;;;;;;;20.15;8.77;;;;;;;2.51;94.98;99817.84;4934823;28;20542;-69
2021/12/11 18:10:07;;;;;;;27.13;10.82;;;;;;;2.50;94.81;99815.38;4948833;28;20158;-67
2021/12/11 18:12:39;;;;;;;20.98;10.25;;;;;;;2.50;95.03;99820.69;4938708;28;20804;-67
2021/12/11 18:15:17;;;;;;;20.60;10.25;;;;;;;2.46;95.02;99822.00;4954189;28;20031;-68
2021/12/11 18:18:13;;;;;;;20.27;9.98;;;;;;;2.48;94.17;99817.38;4953822;28;20064;-66
2021/12/11 18:20:43;;;;;;;17.02;8.00;;;;;;;2.54;93.80;99816.66;4955092;28;20387;-66
2021/12/11 18:23:09;;;;;;;17.73;7.15;;;;;;;2.59;92.83;99820.41;4955552;28;20038;-68
2021/12/11 18:25:35;;;;;;;12.60;7.03;;;;;;;2.66;91.71;99825.84;4937707;28;21110;-67
2021/12/11 18:28:02;;;;;;;23.15;8.82;;;;;;;2.62;91.31;99829.00;4938352;28;20027;-68
2021/12/11 18:30:32;;;;;;;24.02;7.22;;;;;;;2.60;91.55;99826.56;4940350;28;20114;-68
2021/12/11 18:32:58;;;;;;;16.23;8.50;;;;;;;2.61;90.08;99824.72;4952007;28;20838;-68
2021/12/11 18:35:32;;;;;;;19.92;7.20;;;;;;;2.58;90.37;99829.38;4922395;28;20035;-68
2021/12/11 18:37:59;;;;;;;15.30;7.22;;;;;;;2.60;90.87;99837.16;4940004;28;20031;-68
2021/12/11 18:40:41;;;;;;;17.08;7.30;;;;;;;2.56;90.33;99841.13;4938263;28;20027;-68
2021/12/11 18:43:08;;;;;;;17.15;9.07;;;;;;;2.48;90.60;99842.00;4952207;28;20031;-67
2021/12/11 18:45:36;;;;;;;17.25;7.68;;;;;;;2.48;90.70;99849.94;4922066;28;20374;-68
2021/12/11 18:48:08;;;;;;;16.67;7.25;;;;;;;2.50;89.80;99852.44;4932259;28;20480;-68
2021/12/11 18:50:34;;;;;;;20.60;8.60;;;;;;;2.53;91.10;99850.25;4941568;28;20038;-68
2021/12/11 18:52:59;;;;;;;15.90;7.55;;;;;;;2.51;89.25;99862.00;4936939;28;20108;-69
2021/12/11 18:55:29;;;;;;;17.95;8.20;;;;;;;2.43;89.90;99854.94;4939483;28;20114;-67
2021/12/11 18:57:56;;;;;;;19.00;9.20;;;;;;;2.43;90.38;99859.41;4939835;28;20572;-67
2021/12/11 19:00:50;;;;;;;12.45;7.60;;;;;;;2.40;89.55;99857.09;4951147;28;20062;-67
2021/12/11 19:03:16;;;;;;;19.23;7.82;;;;;;;2.37;89.40;99848.53;4949015;28;20046;-67
2021/12/11 19:05:46;;;;;;;23.40;11.45;;;;;;;2.38;89.67;99858.09;4951967;28;20049;-68
2021/12/11 19:08:13;;;;;;;21.52;10.23;;;;;;;2.33;89.65;99852.50;4953758;28;20458;-67
2021/12/11 19:10:38;;;;;;;32.00;13.15;;;;;;;2.36;89.51;99849.50;4936172;29;20070;-69
2021/12/11 19:13:04;;;;;;;50.80;20.75;;;;;;;2.44;89.00;99869.00;4953862;28;20046;-69
2021/12/11 19:15:35;;;;;;;52.75;27.52;;;;;;;2.39;88.85;99856.28;4933467;28;20046;-69
2021/12/11 19:18:01;;;;;;;26.58;13.65;;;;;;;2.34;88.74;99862.09;4918177;28;20151;-66
2021/12/11 19:20:30;;;;;;;37.13;18.58;;;;;;;2.26;89.27;99872.72;4944275;28;20023;-68
2021/12/11 19:22:56;;;;;;;45.08;21.58;;;;;;;2.31;88.96;99865.09;4962950;28;20043;-66
2021/12/11 19:25:23;;;;;;;18.00;9.88;;;;;;;2.33;88.16;99868.38;4934144;28;20710;-66
2021/12/11 19:27:49;;;;;;;21.52;10.05;;;;;;;2.33;88.22;99868.38;4933372;29;20148;-67
2021/12/11 19:30:18;;;;;;;17.73;9.48;;;;;;;2.26;88.28;99871.91;4936571;28;20046;-67
2021/12/11 19:32:44;;;;;;;16.88;8.48;;;;;;;2.24;88.24;99874.69;4943391;28;20089;-67
2021/12/11 19:35:11;;;;;;;30.60;13.38;;;;;;;2.19;88.39;99877.03;4950374;28;20039;-67
2021/12/11 19:37:36;;;;;;;23.00;12.23;;;;;;;2.22;88.02;99876.72;4932529;28;20529;-67
2021/12/11 19:40:15;;;;;;;29.33;13.43;;;;;;;2.08;88.15;99870.31;4948703;28;20039;-66
2021/12/11 19:42:41;;;;;;;14.75;8.95;;;;;;;2.05;88.32;99885.72;4949385;28;20034;-68
2021/12/11 19:45:07;;;;;;;14.88;7.38;;;;;;;2.00;88.60;99893.31;4937137;28;20054;-67
2021/12/11 19:47:33;;;;;;;17.75;8.60;;;;;;;1.97;87.93;99897.13;4951536;28;20038;-67
2021/12/11 19:49:59;;;;;;;19.85;10.32;;;;;;;1.87;88.53;99901.78;4917562;28;20110;-67
2021/12/11 19:52:25;;;;;;;20.48;11.30;;;;;;;1.78;89.36;99903.63;4933653;28;20066;-67
2021/12/11 19:54:51;;;;;;;13.20;7.32;;;;;;;1.72;89.26;99905.13;4939963;28;20031;-67
2021/12/11 19:57:17;;;;;;;24.02;11.10;;;;;;;1.62;89.47;99901.00;4923492;28;20073;-67
2021/12/11 19:59:53;;;;;;;23.45;11.32;;;;;;;1.63;89.77;99902.69;4929792;28;20085;-67
2021/12/11 20:02:21;;;;;;;27.10;10.88;;;;;;;1.50;89.65;99898.72;4951472;28;20031;-67
2021/12/11 20:04:50;;;;;;;17.42;8.52;;;;;;;1.36;90.56;99917.06;4927648;28;20031;-67
2021/12/11 20:07:16;;;;;;;18.42;7.40;;;;;;;1.34;91.03;99919.88;4935707;28;20141;-66
2021/12/11 20:09:53;;;;;;;14.35;5.82;;;;;;;1.27;91.03;99924.16;4933133;28;20513;-67
2021/12/11 20:12:24;;;;;;;9.95;4.00;;;;;;;1.37;90.38;99930.09;4951023;28;20066;-67
2021/12/11 20:14:57;;;;;;;11.18;5.72;;;;;;;1.38;90.27;99937.03;4946540;28;20437;-67
2021/12/11 20:17:24;;;;;;;12.60;6.38;;;;;;;1.27;90.50;99940.84;4937021;28;20549;-67
2021/12/11 20:19:50;;;;;;;11.35;6.13;;;;;;;1.14;90.82;99940.50;4950735;28;20067;-68
2021/12/11 20:22:18;;;;;;;11.00;4.20;;;;;;;1.18;90.47;99938.38;4940830;28;20389;-71
2021/12/11 20:24:45;;;;;;;14.45;6.63;;;;;;;1.05;90.55;99939.66;4936703;28;20401;-68
2021/12/11 20:27:11;;;;;;;21.67;7.35;;;;;;;0.99;91.34;99948.22;4942765;28;20035;-67
2021/12/11 20:29:44;;;;;;;15.82;5.32;;;;;;;1.02;91.08;99942.66;4956300;28;20401;-68
2021/12/11 20:32:15;;;;;;;14.85;4.78;;;;;;;1.11;90.28;99948.75;4947779;28;20041;-67
2021/12/11 20:34:40;;;;;;;12.27;5.93;;;;;;;0.94;91.39;99945.25;4952958;28;20027;-67
2021/12/11 20:37:07;;;;;;;16.35;6.50;;;;;;;0.82;91.66;99943.91;4941314;28;20180;-67
2021/12/11 20:39:33;;;;;;;13.73;7.50;;;;;;;0.81;92.05;99952.81;4954552;28;20031;-68
2021/12/11 20:42:00;;;;;;;17.67;6.05;;;;;;;0.72;91.62;99951.13;4951798;28;20449;-68
2021/12/11 20:44:33;;;;;;;19.27;6.22;;;;;;;0.70;91.72;99948.69;4924655;28;20113;-68
2021/12/11 20:46:59;;;;;;;18.90;6.32;;;;;;;0.61;92.49;99960.19;4917982;28;20464;-67
2021/12/11 20:49:24;;;;;;;12.93;6.35;;;;;;;0.59;91.87;99965.63;4939223;28;20035;-67
2021/12/11 20:51:53;;;;;;;13.20;6.22;;;;;;;0.54;92.38;99970.53;4951916;28;20031;-67
2021/12/11 20:54:27;;;;;;;17.27;7.40;;;;;;;0.54;92.12;99965.28;4937963;28;20034;-68
2021/12/11 20:56:53;;;;;;;16.40;6.57;;;;;;;0.57;92.43;99964.94;4924250;28;20331;-67
2021/12/11 20:59:18;;;;;;;17.30;7.18;;;;;;;0.66;91.51;99967.63;4938126;28;20035;-68
2021/12/11 21:01:48;;;;;;;22.73;8.98;;;;;;;0.67;91.35;99971.91;4955591;28;20374;-67
2021/12/11 21:04:26;;;;;;;5.43;3.00;;;;;;;0.72;91.59;99978.34;4941755;28;20030;-68
2021/12/11 21:06:58;;;;;;;14.32;6.20;;;;;;;0.59;91.68;99985.91;4919702;28;20055;-67
2021/12/11 21:09:33;;;;;;;13.00;6.28;;;;;;;0.44;92.26;99988.31;4940804;28;20035;-67
2021/12/11 21:12:12;;;;;;;15.55;6.05;;;;;;;0.54;92.43;99981.09;4955883;28;20035;-66
2021/12/11 21:14:37;;;;;;;14.70;6.47;;;;;;;0.52;92.14;99972.50;4940008;28;20036;-70
2021/12/11 21:17:10;;;;;;;13.77;6.22;;;;;;;0.32;93.84;99979.84;4940903;28;20026;-67
2021/12/11 21:19:41;;;;;;;9.57;4.03;;;;;;;0.38;93.55;99983.69;4956954;28;20030;-67
2021/12/11 21:22:20;;;;;;;17.80;6.50;;;;;;;0.29;93.37;99985.44;4942996;28;20200;-67
2021/12/11 21:24:49;;;;;;;15.98;6.43;;;;;;;0.19;94.27;99988.19;4941457;28;20393;-67
2021/12/11 21:27:29;;;;;;;19.27;7.80;;;;;;;0.14;94.80;100001.00;4939640;28;20053;-67
2021/12/11 21:29:55;;;;;;;17.40;6.68;;;;;;;0.22;94.63;99989.69;4950680;28;20038;-66
2021/12/11 21:32:22;;;;;;;16.10;7.80;;;;;;;0.24;94.58;99992.19;4952007;28;20031;-67
2021/12/11 21:34:50;;;;;;;18.35;7.05;;;;;;;0.24;94.19;100000.09;4941181;28;20130;-67
2021/12/11 21:37:17;;;;;;;17.08;6.93;;;;;;;0.04;95.34;99992.38;4957916;28;20070;-67
2021/12/11 21:40:06;;;;;;;13.82;6.93;;;;;;;0.14;95.19;100001.00;4933865;28;20030;-67
2021/12/11 21:42:41;;;;;;;14.07;6.10;;;;;;;0.19;95.22;99990.81;4952745;28;20097;-68
2021/12/11 21:45:16;;;;;;;26.13;8.65;;;;;;;0.09;95.27;99992.75;4951601;28;20037;-66
2021/12/11 21:47:44;;;;;;;11.60;4.75;;;;;;;0.12;95.63;99996.88;4955909;28;20122;-66
2021/12/11 21:50:13;;;;;;;10.45;6.15;;;;;;;0.17;95.81;99999.88;4959284;28;20890;-66
2021/12/11 21:52:39;;;;;;;17.63;7.25;;;;;;;0.12;95.58;100000.34;4954059;28;20035;-67
2021/12/11 21:55:12;;;;;;;18.48;6.25;;;;;;;0.08;95.88;100006.91;4944320;28;20536;-68
2021/12/11 21:57:38;;;;;;;13.43;5.75;;;;;;;0.05;96.35;100003.75;4955659;28;20031;-66
2021/12/11 22:00:13;;;;;;;15.80;7.07;;;;;;;-0.02;95.96;100012.28;4937151;28;20512;-68
2021/12/11 22:02:43;;;;;;;17.23;7.93;;;;;;;-0.06;96.73;100015.38;4950525;28;20727;-68
2021/12/11 22:05:20;;;;;;;20.77;6.45;;;;;;;-0.06;96.45;100012.75;4935545;28;20027;-67
2021/12/11 22:07:46;;;;;;;18.00;6.88;;;;;;;-0.07;96.03;100011.09;4949192;28;20130;-67
2021/12/11 22:10:21;;;;;;;16.25;6.50;;;;;;;-0.10;96.47;100011.41;4948919;28;20472;-67
2021/12/11 22:12:47;;;;;;;18.50;6.70;;;;;;;-0.10;96.96;100024.56;4934326;28;20031;-67
2021/12/11 22:15:26;;;;;;;14.32;6.38;;;;;;;-0.10;97.36;100024.56;4935524;28;20035;-67
2021/12/11 22:17:52;;;;;;;19.83;6.50;;;;;;;-0.01;97.02;100023.66;4947110;28;20060;-68
2021/12/11 22:20:23;;;;;;;17.40;7.15;;;;;;;0.17;96.56;100020.97;4937344;28;20031;-67
2021/12/11 22:22:49;;;;;;;19.85;6.90;;;;;;;0.06;97.39;100029.97;4948014;28;20110;-67
2021/12/11 22:25:26;;;;;;;28.10;10.60;;;;;;;0.13;96.95;100019.63;4951914;28;20035;-67
2021/12/11 22:27:52;;;;;;;20.65;8.98;;;;;;;0.23;97.18;100027.44;4934888;28;20046;-67
2021/12/11 22:30:26;;;;;;;24.45;10.25;;;;;;;0.28;96.84;100035.72;4938495;28;20030;-67
2021/12/11 22:32:52;;;;;;;25.20;8.18;;;;;;;0.29;96.58;100034.72;4916687;28;20062;-66
2021/12/11 22:35:21;;;;;;;23.60;9.43;;;;;;;0.38;96.31;100039.88;4930940;28;20601;-66
2021/12/11 22:37:46;;;;;;;21.15;6.93;;;;;;;0.39;95.74;100040.72;4949558;28;20097;-66
2021/12/11 22:40:24;;;;;;;31.50;12.45;;;;;;;0.40;95.21;100035.28;4938074;28;20031;-66
2021/12/11 22:42:51;;;;;;;25.95;8.40;;;;;;;0.60;94.88;100038.50;4951204;28;20096;-66
2021/12/11 22:45:18;;;;;;;27.27;11.77;;;;;;;0.57;94.10;100041.44;4928479;28;20026;-65
2021/12/11 22:47:46;;;;;;;31.38;11.48;;;;;;;0.52;94.53;100045.53;4936801;28;20105;-66
2021/12/11 22:50:34;;;;;;;19.60;8.70;;;;;;;0.49;94.96;100057.25;4924728;28;20532;-66
2021/12/11 22:53:01;;;;;;;13.82;6.05;;;;;;;0.59;94.96;100052.66;4956849;28;20037;-66
2021/12/11 22:55:31;;;;;;;16.15;6.18;;;;;;;0.63;94.26;100043.47;4952879;28;20031;-66
2021/12/11 22:58:00;;;;;;;10.13;5.07;;;;;;;0.68;94.40;100045.63;4943918;28;20070;-66
2021/12/11 23:00:30;;;;;;;13.32;5.20;;;;;;;0.53;94.95;100037.50;4950535;28;20711;-66
2021/12/11 23:02:59;;;;;;;17.52;5.93;;;;;;;0.59;95.41;100042.13;4948934;28;20039;-67
2021/12/11 23:05:25;;;;;;;9.70;4.68;;;;;;;0.61;94.43;100029.59;4951122;28;20031;-66
2021/12/11 23:07:54;;;;;;;15.73;6.40;;;;;;;0.72;95.31;100046.13;4931084;28;20693;-66
2021/12/11 23:10:33;;;;;;;16.27;6.45;;;;;;;0.70;94.72;100037.53;4949193;28;20027;-66
2021/12/11 23:13:20;;;;;;;15.82;5.53;;;;;;;0.59;94.97;100036.84;4950252;28;20049;-66
2021/12/11 23:15:52;;;;;;;19.48;6.80;;;;;;;0.54;95.52;100031.22;4941291;28;20170;-66
2021/12/11 23:18:50;;;;;;;13.90;5.45;;;;;;;0.60;95.18;100030.59;4947020;28;20031;-68
2021/12/11 23:21:20;;;;;;;11.00;5.35;;;;;;;0.64;95.07;100023.19;4950136;28;20412;-66
2021/12/11 23:23:53;;;;;;;19.88;7.80;;;;;;;0.68;95.50;100026.34;4945237;28;20042;-65
2021/12/11 23:26:40;;;;;;;14.25;5.95;;;;;;;0.60;95.30;100027.97;4952079;28;20441;-67
2021/12/11 23:29:30;;;;;;;16.52;6.93;;;;;;;0.55;95.77;100032.03;4948893;28;20120;-65
2021/12/11 23:32:04;;;;;;;12.88;5.95;;;;;;;0.43;96.26;100037.59;4953490;28;20085;-67
2021/12/11 23:34:35;;;;;;;15.45;5.88;;;;;;;0.43;96.56;100042.06;4958767;28;20031;-67
2021/12/11 23:37:09;;;;;;;17.77;6.50;;;;;;;0.40;96.93;100053.75;4948095;28;20388;-67
2021/12/11 23:39:38;;;;;;;18.10;6.20;;;;;;;0.34;97.03;100051.72;4928795;28;20032;-67
2021/12/11 23:42:07;;;;;;;18.60;6.50;;;;;;;0.35;97.16;100055.19;4935406;28;20062;-67
2021/12/11 23:44:36;;;;;;;17.17;6.75;;;;;;;0.31;97.34;100049.41;4951270;28;20647;-67
2021/12/11 23:47:09;;;;;;;23.83;6.78;;;;;;;0.30;97.36;100057.44;4951025;28;20031;-67
2021/12/11 23:49:36;;;;;;;14.38;5.35;;;;;;;0.27;97.31;100055.13;4952326;28;20027;-67